createdAt,value
2023-01-07T00:00:24.317Z,10.10
2023-01-07T00:06:33.614Z,10.10
2023-01-07T00:15:44.793Z,10.10
2023-01-07T00:31:05.039Z,9.90
2023-01-07T00:46:43.932Z,9.70
2023-01-07T00:55:54.077Z,11.60
2023-01-07T00:58:57.089Z,9.50
2023-01-07T01:02:01.638Z,9.00
2023-01-07T01:05:06.364Z,9.60
2023-01-07T01:08:11.356Z,9.30
2023-01-07T01:11:17.377Z,9.20
2023-01-07T01:17:25.359Z,9.00
2023-01-07T01:32:43.129Z,8.70
2023-01-07T01:48:09.440Z,8.60
2023-01-07T01:51:16.604Z,8.50
2023-01-07T01:54:21.775Z,10.10
2023-01-07T01:57:29.907Z,8.40
2023-01-07T02:00:35.287Z,11.20
2023-01-07T02:03:40.465Z,8.40
2023-01-07T02:06:51.667Z,8.30
2023-01-07T02:10:02.161Z,8.40
2023-01-07T02:13:26.527Z,8.40
2023-01-07T02:16:39.252Z,8.40
2023-01-07T02:20:30.400Z,8.40
2023-01-07T02:24:36.779Z,8.50
2023-01-07T02:28:29.613Z,8.60
2023-01-07T02:32:03.472Z,8.60
2023-01-07T02:35:24.843Z,9.20
2023-01-07T02:38:41.777Z,10.40
2023-01-07T02:41:58.463Z,8.60
2023-01-07T02:45:12.378Z,8.60
2023-01-07T02:48:20.572Z,8.60
2023-01-07T02:51:34.474Z,8.60
2023-01-07T02:54:37.513Z,5.70
2023-01-07T02:58:24.243Z,8.60
2023-01-07T03:01:53.768Z,11.90
2023-01-07T03:05:33.761Z,8.70
2023-01-07T03:08:58.722Z,8.70
2023-01-07T03:12:10.500Z,8.70
2023-01-07T03:15:22.093Z,8.70
2023-01-07T03:18:30.349Z,9.10
2023-01-07T03:21:36.036Z,9.40
2023-01-07T03:24:41.250Z,7.00
2023-01-07T03:27:49.246Z,8.90
2023-01-07T03:30:55.624Z,8.80
2023-01-07T03:34:04.483Z,8.80
2023-01-07T03:37:13.910Z,8.90
2023-01-07T03:40:20.388Z,9.00
2023-01-07T03:43:24.602Z,9.00
2023-01-07T03:46:27.735Z,9.00
2023-01-07T03:49:31.100Z,9.10
2023-01-07T03:52:35.527Z,9.00
2023-01-07T03:55:38.585Z,9.00
2023-01-07T03:58:41.537Z,9.00
2023-01-07T04:01:44.679Z,10.00
2023-01-07T04:04:47.833Z,9.00
2023-01-07T04:07:52.268Z,9.00
2023-01-07T04:10:55.221Z,9.00
2023-01-07T04:14:00.643Z,9.10
2023-01-07T04:17:03.845Z,9.90
2023-01-07T04:20:08.563Z,10.40
2023-01-07T04:23:13.029Z,9.10
2023-01-07T04:26:16.077Z,9.80
2023-01-07T04:29:20.972Z,9.10
2023-01-07T04:32:24.065Z,11.20
2023-01-07T04:35:27.164Z,9.20
2023-01-07T04:38:31.717Z,10.30
2023-01-07T04:41:34.784Z,9.20
2023-01-07T04:44:37.757Z,9.20
2023-01-07T04:47:40.737Z,9.10
2023-01-07T04:50:43.778Z,9.20
2023-01-07T04:53:48.660Z,9.20
2023-01-07T04:56:51.605Z,8.70
2023-01-07T04:59:54.877Z,9.10
2023-01-07T05:02:58.049Z,9.10
2023-01-07T05:09:06.397Z,8.90
2023-01-07T05:12:09.439Z,9.00
2023-01-07T05:15:13.198Z,9.00
2023-01-07T05:24:24.758Z,8.80
2023-01-07T05:39:42.641Z,8.50
2023-01-07T05:51:56.975Z,6.80
2023-01-07T05:55:01.293Z,8.30
2023-01-07T05:58:04.243Z,8.30
2023-01-07T06:01:07.244Z,8.30
2023-01-07T06:04:10.769Z,8.20
2023-01-07T06:07:13.988Z,8.20
2023-01-07T06:10:18.963Z,8.20
2023-01-07T06:25:37.121Z,8.20
2023-01-07T06:28:40.335Z,8.30
2023-01-07T06:31:43.764Z,8.30
2023-01-07T06:34:46.727Z,8.70
2023-01-07T06:40:54.248Z,8.20
2023-01-07T06:43:57.220Z,8.20
2023-01-07T06:47:00.507Z,8.20
2023-01-07T06:50:03.646Z,8.20
2023-01-07T06:53:06.840Z,8.10
2023-01-07T06:56:11.654Z,8.10
2023-01-07T06:59:14.831Z,9.30
2023-01-07T07:02:21.166Z,8.00
2023-01-07T07:05:25.315Z,5.90
2023-01-07T07:08:28.750Z,8.00
2023-01-07T07:11:33.244Z,9.10
2023-01-07T07:14:36.782Z,7.90
2023-01-07T07:23:46.974Z,7.90
2023-01-07T07:26:52.065Z,8.00
2023-01-07T07:29:55.087Z,7.80
2023-01-07T07:33:03.480Z,5.20
2023-01-07T07:36:07.319Z,5.50
2023-01-07T07:39:11.821Z,7.80
2023-01-07T07:42:16.275Z,7.90
2023-01-07T07:45:19.802Z,7.90
2023-01-07T07:48:22.981Z,7.90
2023-01-07T07:51:26.076Z,8.50
2023-01-07T07:54:29.435Z,7.90
2023-01-07T07:57:33.864Z,8.30
2023-01-07T08:00:36.936Z,8.00
2023-01-07T08:03:40.209Z,8.00
2023-01-07T08:06:43.331Z,8.10
2023-01-07T08:09:46.236Z,8.10
2023-01-07T08:12:51.071Z,8.30
2023-01-07T08:15:54.163Z,8.10
2023-01-07T08:18:57.247Z,7.10
2023-01-07T08:22:00.227Z,8.10
2023-01-07T08:25:03.817Z,8.10
2023-01-07T08:28:08.358Z,8.10
2023-01-07T08:31:11.944Z,8.10
2023-01-07T08:34:15.203Z,8.10
2023-01-07T08:37:18.654Z,7.10
2023-01-07T08:40:21.656Z,8.00
2023-01-07T08:43:26.173Z,8.10
2023-01-07T08:46:29.281Z,8.10
2023-01-07T08:49:33.289Z,8.10
2023-01-07T08:52:36.265Z,8.10
2023-01-07T08:55:39.263Z,8.20
2023-01-07T08:58:43.563Z,8.30
2023-01-07T09:01:46.688Z,8.30
2023-01-07T09:07:54.173Z,8.90
2023-01-07T09:14:02.040Z,8.60
2023-01-07T09:17:05.099Z,9.80
2023-01-07T09:20:10.336Z,8.70
2023-01-07T09:23:13.366Z,8.70
2023-01-07T09:26:17.672Z,8.90
2023-01-07T09:29:22.130Z,8.90
2023-01-07T09:32:25.185Z,9.00
2023-01-07T09:35:28.259Z,8.60
2023-01-07T09:38:31.490Z,9.10
2023-01-07T09:41:56.044Z,10.70
2023-01-07T09:45:16.475Z,9.30
2023-01-07T09:48:30.307Z,9.30
2023-01-07T09:51:40.216Z,9.40
2023-01-07T09:54:45.580Z,9.40
2023-01-07T09:57:53.576Z,9.50
2023-01-07T10:01:18.568Z,10.30
2023-01-07T10:04:39.484Z,7.90
2023-01-07T10:07:51.218Z,9.50
2023-01-07T10:11:05.584Z,9.50
2023-01-07T10:14:30.555Z,9.50
2023-01-07T10:17:56.584Z,9.70
2023-01-07T10:21:13.289Z,9.50
2023-01-07T10:24:24.450Z,9.50
2023-01-07T10:27:34.254Z,9.50
2023-01-07T10:30:45.321Z,9.50
2023-01-07T10:33:52.415Z,8.50
2023-01-07T10:37:03.626Z,9.50
2023-01-07T10:40:28.963Z,9.20
2023-01-07T10:43:59.741Z,9.60
2023-01-07T10:47:17.910Z,9.60
2023-01-07T10:50:41.121Z,9.70
2023-01-07T10:54:01.313Z,9.70
2023-01-07T10:57:13.651Z,8.30
2023-01-07T11:00:19.305Z,9.80
2023-01-07T11:03:25.346Z,9.90
2023-01-07T11:06:40.528Z,9.80
2023-01-07T11:09:48.063Z,9.90
2023-01-07T11:12:55.386Z,9.90
2023-01-07T11:16:07.732Z,10.00
2023-01-07T11:19:13.005Z,9.40
2023-01-07T11:22:37.892Z,10.00
2023-01-07T11:25:42.058Z,10.00
2023-01-07T11:28:51.304Z,10.00
2023-01-07T11:31:58.709Z,10.10
2023-01-07T11:35:06.598Z,10.10
2023-01-07T11:38:29.764Z,11.20
2023-01-07T11:41:32.764Z,10.10
2023-01-07T11:44:35.721Z,10.10
2023-01-07T11:47:45.409Z,10.10
2023-01-07T11:51:00.040Z,10.10
2023-01-07T11:54:07.466Z,10.10
2023-01-07T11:57:21.601Z,10.10
2023-01-07T12:00:25.678Z,10.10
2023-01-07T12:03:28.786Z,10.10
2023-01-07T12:06:35.868Z,8.80
2023-01-07T12:09:45.920Z,10.10
2023-01-07T12:12:48.847Z,10.10
2023-01-07T12:15:57.455Z,10.20
2023-01-07T12:19:19.110Z,11.50
2023-01-07T12:22:35.809Z,9.50
2023-01-07T12:25:55.558Z,10.20
2023-01-07T12:29:14.716Z,10.30
2023-01-07T12:32:45.217Z,10.30
2023-01-07T12:35:48.772Z,10.30
2023-01-07T12:38:57.453Z,10.00
2023-01-07T12:42:13.228Z,10.30
2023-01-07T12:45:24.076Z,10.30
2023-01-07T12:48:38.192Z,10.30
2023-01-07T12:51:51.850Z,10.30
2023-01-07T12:55:01.725Z,10.30
2023-01-07T12:58:17.742Z,10.90
2023-01-07T13:01:31.585Z,9.50
2023-01-07T13:04:54.643Z,9.40
2023-01-07T13:08:12.456Z,10.30
2023-01-07T13:11:46.423Z,10.30
2023-01-07T13:15:02.414Z,10.30
2023-01-07T13:18:16.906Z,10.40
2023-01-07T13:21:23.672Z,10.40
2023-01-07T13:24:54.488Z,10.40
2023-01-07T13:28:40.072Z,10.40
2023-01-07T13:32:23.037Z,12.80
2023-01-07T13:35:49.587Z,10.40
2023-01-07T13:39:40.768Z,10.40
2023-01-07T13:42:52.051Z,10.40
2023-01-07T13:46:03.057Z,10.50
2023-01-07T13:49:24.541Z,12.80
2023-01-07T13:52:36.547Z,10.50
2023-01-07T13:55:42.669Z,10.50
2023-01-07T13:58:48.215Z,10.50
2023-01-07T14:02:18.516Z,10.50
2023-01-07T14:05:28.906Z,12.40
2023-01-07T14:08:32.413Z,10.60
2023-01-07T14:12:13.321Z,10.60
2023-01-07T14:16:04.131Z,10.50
2023-01-07T14:19:20.397Z,12.30
2023-01-07T14:22:41.257Z,10.40
2023-01-07T14:26:06.657Z,10.60
2023-01-07T14:29:31.784Z,12.00
2023-01-07T14:32:37.860Z,10.70
2023-01-07T14:35:43.327Z,10.80
2023-01-07T14:39:31.251Z,10.80
2023-01-07T14:42:44.803Z,10.80
2023-01-07T14:45:55.991Z,10.80
2023-01-07T14:49:32.204Z,10.90
2023-01-07T14:53:46.352Z,12.40
2023-01-07T14:57:07.209Z,10.90
2023-01-07T15:00:55.771Z,11.10
2023-01-07T15:04:53.170Z,11.70
2023-01-07T15:08:17.029Z,10.90
2023-01-07T15:11:44.209Z,11.00
2023-01-07T15:15:12.898Z,11.00
2023-01-07T15:18:16.994Z,11.00
2023-01-07T15:21:34.221Z,11.10
2023-01-07T15:24:46.920Z,13.20
2023-01-07T15:27:59.639Z,10.70
2023-01-07T15:31:13.622Z,10.60
2023-01-07T15:34:18.920Z,11.10
2023-01-07T15:40:28.082Z,11.20
2023-01-07T15:43:32.936Z,12.80
2023-01-07T15:46:41.674Z,11.10
2023-01-07T15:49:44.618Z,14.00
2023-01-07T15:52:50.615Z,11.10
2023-01-07T15:56:00.486Z,11.40
2023-01-07T15:59:09.321Z,10.60
2023-01-07T16:02:24.122Z,11.10
2023-01-07T16:05:27.263Z,11.10
2023-01-07T16:08:33.381Z,11.10
2023-01-07T16:11:36.566Z,9.50
2023-01-07T16:14:39.566Z,11.00
2023-01-07T16:17:52.651Z,11.00
2023-01-07T16:21:00.438Z,11.00
2023-01-07T16:24:03.823Z,6.70
2023-01-07T16:30:15.793Z,10.90
2023-01-07T16:33:25.588Z,10.90
2023-01-07T16:36:40.542Z,10.90
2023-01-07T16:39:47.433Z,14.30
2023-01-07T16:42:51.277Z,10.70
2023-01-07T16:46:17.113Z,8.10
2023-01-07T16:49:29.270Z,10.80
2023-01-07T16:52:34.408Z,10.70
2023-01-07T16:55:49.977Z,14.10
2023-01-07T16:58:55.561Z,10.70
2023-01-07T17:02:01.186Z,10.70
2023-01-07T17:05:20.903Z,10.70
2023-01-07T17:11:36.539Z,10.70
2023-01-07T17:14:50.558Z,10.60
2023-01-07T17:21:40.260Z,11.70
2023-01-07T17:27:58.120Z,10.50
2023-01-07T17:31:02.298Z,10.50
2023-01-07T17:34:05.141Z,13.60
2023-01-07T17:37:15.879Z,10.40
2023-01-07T17:43:35.220Z,10.30
2023-01-07T18:05:03.763Z,10.50
2023-01-07T18:08:09.167Z,10.70
2023-01-07T18:11:33.612Z,10.60
2023-01-07T18:14:36.578Z,10.50
2023-01-07T18:17:40.000Z,10.50
2023-01-07T18:20:42.966Z,10.50
2023-01-07T18:23:47.549Z,10.60
2023-01-07T18:26:51.557Z,11.80
2023-01-07T18:29:54.523Z,10.60
2023-01-07T18:32:57.586Z,10.40
2023-01-07T18:36:00.594Z,12.20
2023-01-07T18:39:06.624Z,10.60
2023-01-07T18:42:09.789Z,9.40
2023-01-07T18:45:13.569Z,10.50
2023-01-07T18:48:19.313Z,10.60
2023-01-07T18:54:27.070Z,10.60
2023-01-07T19:06:41.339Z,11.30
2023-01-07T19:09:46.038Z,10.60
2023-01-07T19:22:00.398Z,10.40
2023-01-07T19:25:05.743Z,10.50
2023-01-07T19:28:08.760Z,10.60
2023-01-07T19:31:12.541Z,10.50
2023-01-07T19:34:16.469Z,10.50
2023-01-07T19:40:26.127Z,10.60
2023-01-07T19:43:29.113Z,9.10
2023-01-07T19:46:34.298Z,10.40
2023-01-07T19:49:37.273Z,11.20
2023-01-07T19:52:40.251Z,10.50
2023-01-07T19:55:44.538Z,12.10
2023-01-07T19:58:47.542Z,10.60
2023-01-07T20:01:51.836Z,10.50
2023-01-07T20:04:55.041Z,10.50
2023-01-07T20:07:59.052Z,10.00
2023-01-07T20:11:03.960Z,10.50
2023-01-07T20:14:08.100Z,10.50
2023-01-07T20:17:11.016Z,10.50
2023-01-07T20:20:14.114Z,10.50
2023-01-07T20:23:17.032Z,10.50
2023-01-07T20:26:23.680Z,8.90
2023-01-07T20:29:26.791Z,10.50
2023-01-07T20:32:29.735Z,10.50
2023-01-07T20:35:32.926Z,10.50
2023-01-07T20:38:36.463Z,10.90
2023-01-07T20:41:41.050Z,10.50
2023-01-07T20:44:44.035Z,10.50
2023-01-07T20:47:47.031Z,9.50
2023-01-07T20:50:49.999Z,10.50
2023-01-07T20:53:53.211Z,10.50
2023-01-07T20:56:57.629Z,10.50
2023-01-07T21:00:00.649Z,10.50
2023-01-07T21:03:03.736Z,9.80
2023-01-07T21:06:09.859Z,10.60
2023-01-07T21:09:13.388Z,10.60
2023-01-07T21:12:18.872Z,9.30
2023-01-07T21:15:23.863Z,10.60
2023-01-07T21:18:26.850Z,10.60
2023-01-07T21:21:30.872Z,10.60
2023-01-07T21:24:33.886Z,10.50
2023-01-07T21:27:38.307Z,12.20
2023-01-07T21:30:41.378Z,10.50
2023-01-07T21:33:45.808Z,10.60
2023-01-07T21:36:50.119Z,11.10
2023-01-07T21:39:55.400Z,10.60
2023-01-07T21:43:00.482Z,10.50
2023-01-07T21:46:06.268Z,10.60
2023-01-07T21:49:09.440Z,10.60
2023-01-07T21:52:12.419Z,10.50
2023-01-07T21:55:15.346Z,10.50
2023-01-07T21:58:19.837Z,10.50
2023-01-07T22:01:29.603Z,10.40
2023-01-07T22:04:32.741Z,10.50
2023-01-07T22:07:35.716Z,12.80
2023-01-07T22:10:38.816Z,10.40
2023-01-07T22:13:43.257Z,10.10
2023-01-07T22:16:48.891Z,11.80
2023-01-07T22:23:30.243Z,10.40
2023-01-07T22:26:36.019Z,10.40
2023-01-07T22:29:40.375Z,10.40
2023-01-07T22:32:43.325Z,10.40
2023-01-07T22:35:47.983Z,10.40
2023-01-07T22:38:52.478Z,11.50
2023-01-07T22:42:02.430Z,10.20
2023-01-07T22:45:14.126Z,10.20
2023-01-07T22:48:23.852Z,10.20
2023-01-07T22:51:32.867Z,10.20
2023-01-07T22:54:37.008Z,8.60
2023-01-07T22:57:40.175Z,10.10
2023-01-07T23:01:12.692Z,9.00
2023-01-07T23:04:15.800Z,11.50
2023-01-07T23:07:19.177Z,10.00
2023-01-07T23:10:22.157Z,10.10
2023-01-07T23:13:25.670Z,9.70
2023-01-07T23:16:30.209Z,12.20
2023-01-07T23:19:33.303Z,10.00
2023-01-07T23:22:36.689Z,10.10
2023-01-07T23:25:46.494Z,10.10
2023-01-07T23:28:51.320Z,10.10
2023-01-07T23:31:59.332Z,10.30
2023-01-07T23:35:03.833Z,8.10
2023-01-07T23:38:11.388Z,8.00
2023-01-07T23:41:14.922Z,10.00
2023-01-07T23:47:22.716Z,10.00
2023-01-07T23:50:25.633Z,10.00
